Time;durP1;ratioP1;P1;durP2;ratioP2;P2;SDS_P1;SDS_P2;PMS_P1;PMS_P2;Temp;Humidity;BMP_temperature;BMP_pressure;BME280_temperature;BME280_humidity;BME280_pressure;Samples;Min_cycle;Max_cycle;Signal;HPM_P1;HPM_P2
2023/06/18 00:02:08;;;;;;;;;;;11.50;99.90;;;;;;8355541;28;20530;-80
2023/06/18 00:06:08;;;;;;;;;;;11.60;99.90;;;;;;8379945;28;19917;-79
2023/06/18 00:10:09;;;;;;;;;;;11.80;99.90;;;;;;8360171;28;19923;-80
2023/06/18 00:14:10;;;;;;;;;;;11.70;99.90;;;;;;8393259;28;19952;-79
2023/06/18 00:18:10;;;;;;;;;;;11.50;99.90;;;;;;8365962;28;19947;-79
2023/06/18 00:22:15;;;;;;;;;;;11.70;99.90;;;;;;8385475;28;19912;-81
2023/06/18 00:26:15;;;;;;;;;;;11.60;99.90;;;;;;8369179;28;19916;-80
2023/06/18 00:30:16;;;;;;;;;;;11.80;99.90;;;;;;8383795;28;19954;-79
2023/06/18 00:34:17;;;;;;;;;;;11.70;99.90;;;;;;8356881;28;19984;-79
2023/06/18 00:38:17;;;;;;;;;;;12.00;99.90;;;;;;8370640;28;20007;-79
2023/06/18 00:42:18;;;;;;;;;;;11.40;99.90;;;;;;8384853;28;19919;-80
2023/06/18 00:46:19;;;;;;;;;;;11.00;99.90;;;;;;8366026;28;19959;-80
2023/06/18 00:50:20;;;;;;;;;;;10.80;99.90;;;;;;8356538;28;20316;-81
2023/06/18 00:54:22;;;;;;;;;;;10.90;99.90;;;;;;8386967;28;20539;-79
2023/06/18 00:58:23;;;;;;;;;;;11.20;99.90;;;;;;8365014;28;19916;-79
2023/06/18 01:02:25;;;;;;;;;;;11.30;99.90;;;;;;8361950;28;19908;-79
2023/06/18 01:06:26;;;;;;;;;;;11.20;99.90;;;;;;8367843;28;20492;-80
2023/06/18 01:10:29;;;;;;;;;;;11.20;99.90;;;;;;8395862;28;20015;-81
2023/06/18 01:14:30;;;;;;;;;;;11.00;99.90;;;;;;8368098;28;20289;-81
2023/06/18 01:18:34;;;;;;;;;;;10.80;99.90;;;;;;8369187;28;19926;-79
2023/06/18 01:23:06;;;;;;;;;;;10.50;99.90;;;;;;8392128;28;19912;-81
2023/06/18 01:27:08;;;;;;;;;;;10.60;99.90;;;;;;8355548;28;19916;-81
2023/06/18 01:31:08;;;;;;;;;;;10.60;99.90;;;;;;8382996;28;20568;-79
2023/06/18 01:35:15;;;;;;;;;;;10.30;99.90;;;;;;8381298;28;20020;-80
2023/06/18 01:39:26;;;;;;;;;;;10.40;99.90;;;;;;8372116;28;20095;-79
2023/06/18 01:43:32;;;;;;;;;;;10.40;99.90;;;;;;8358660;28;20384;-79
2023/06/18 01:47:33;;;;;;;;;;;10.20;99.90;;;;;;8360338;28;20003;-80
2023/06/18 01:51:35;;;;;;;;;;;10.00;99.90;;;;;;8367154;28;19984;-79
2023/06/18 01:55:37;;;;;;;;;;;10.10;99.90;;;;;;8360232;28;19913;-79
2023/06/18 01:59:40;;;;;;;;;;;9.90;99.90;;;;;;8380050;28;19912;-79
2023/06/18 02:03:40;;;;;;;;;;;9.70;99.90;;;;;;8363278;28;20377;-80
2023/06/18 02:07:41;;;;;;;;;;;9.60;99.90;;;;;;8380826;28;19912;-79
2023/06/18 02:11:41;;;;;;;;;;;9.50;99.90;;;;;;8362930;28;19936;-79
2023/06/18 02:15:42;;;;;;;;;;;9.30;99.90;;;;;;8354021;28;19973;-79
2023/06/18 02:19:43;;;;;;;;;;;9.40;99.90;;;;;;8369546;28;19915;-79
2023/06/18 02:23:43;;;;;;;;;;;10.20;99.90;;;;;;8370533;28;19915;-78
2023/06/18 02:27:51;;;;;;;;;;;9.20;99.90;;;;;;8362390;28;19916;-79
2023/06/18 02:31:52;;;;;;;;;;;9.10;99.90;;;;;;8371587;28;19947;-79
2023/06/18 02:35:52;;;;;;;;;;;9.10;99.90;;;;;;8380436;28;19917;-79
2023/06/18 02:39:52;;;;;;;;;;;9.00;99.90;;;;;;8379795;28;20289;-80
2023/06/18 02:43:53;;;;;;;;;;;9.00;99.90;;;;;;8361086;28;19913;-79
2023/06/18 02:47:54;;;;;;;;;;;9.30;99.90;;;;;;8377136;28;19924;-79
2023/06/18 02:51:54;;;;;;;;;;;9.30;99.90;;;;;;8361421;28;20112;-81
2023/06/18 02:55:55;;;;;;;;;;;9.50;99.90;;;;;;8352629;28;19913;-79
2023/06/18 02:59:55;;;;;;;;;;;9.30;99.90;;;;;;8374096;28;20419;-79
2023/06/18 03:03:56;;;;;;;;;;;8.90;99.90;;;;;;8370591;28;19920;-79
2023/06/18 03:07:57;;;;;;;;;;;8.60;99.90;;;;;;8351648;28;19916;-79
2023/06/18 03:11:57;;;;;;;;;;;8.80;99.90;;;;;;8364560;28;20616;-79
2023/06/18 03:15:57;;;;;;;;;;;9.00;99.90;;;;;;8351702;28;19920;-80
2023/06/18 03:19:58;;;;;;;;;;;8.90;99.90;;;;;;8350783;28;19992;-78
2023/06/18 03:23:58;;;;;;;;;;;9.00;99.90;;;;;;8360240;28;19909;-80
2023/06/18 03:27:59;;;;;;;;;;;9.00;99.90;;;;;;8376025;28;19912;-79
2023/06/18 03:31:59;;;;;;;;;;;8.80;99.90;;;;;;8362758;28;19947;-78
2023/06/18 03:36:00;;;;;;;;;;;9.10;99.90;;;;;;8367017;28;19916;-79
2023/06/18 03:40:03;;;;;;;;;;;9.00;99.90;;;;;;8362321;28;19908;-79
2023/06/18 03:44:03;;;;;;;;;;;9.30;99.90;;;;;;8373562;28;19913;-79
2023/06/18 03:48:04;;;;;;;;;;;9.40;99.90;;;;;;8358937;28;19983;-80
2023/06/18 03:52:05;;;;;;;;;;;9.50;99.90;;;;;;8359034;28;20663;-81
2023/06/18 03:56:06;;;;;;;;;;;9.70;99.90;;;;;;8367219;28;19916;-79
2023/06/18 04:00:08;;;;;;;;;;;9.90;99.90;;;;;;8383757;28;20587;-80
2023/06/18 04:04:09;;;;;;;;;;;10.40;99.90;;;;;;8368138;28;19912;-80
2023/06/18 04:08:09;;;;;;;;;;;10.50;99.90;;;;;;8391636;28;20657;-80
2023/06/18 04:12:11;;;;;;;;;;;10.80;99.90;;;;;;8366338;28;19923;-79
2023/06/18 04:16:11;;;;;;;;;;;11.20;99.90;;;;;;8373347;28;19962;-81
2023/06/18 04:20:12;;;;;;;;;;;11.30;99.90;;;;;;8362404;28;19940;-79
2023/06/18 04:24:12;;;;;;;;;;;11.90;99.90;;;;;;8371529;28;19912;-80
2023/06/18 04:28:13;;;;;;;;;;;11.90;99.90;;;;;;8373321;28;20296;-80
2023/06/18 04:32:13;;;;;;;;;;;12.60;99.90;;;;;;8362995;28;20343;-80
2023/06/18 04:36:14;;;;;;;;;;;13.80;99.90;;;;;;8382059;28;20007;-79
2023/06/18 04:40:15;;;;;;;;;;;14.80;99.90;;;;;;8383745;28;19916;-80
2023/06/18 04:44:16;;;;;;;;;;;14.90;99.90;;;;;;8353878;28;19935;-81
2023/06/18 04:48:17;;;;;;;;;;;15.60;99.90;;;;;;8369807;28;19958;-80
2023/06/18 04:52:17;;;;;;;;;;;15.60;99.90;;;;;;8382643;28;20429;-80
2023/06/18 04:56:19;;;;;;;;;;;16.30;99.90;;;;;;8358800;28;19917;-80
2023/06/18 05:00:20;;;;;;;;;;;16.70;99.90;;;;;;8363899;28;20468;-81
2023/06/18 05:04:20;;;;;;;;;;;16.70;99.90;;;;;;8364616;28;19978;-80
2023/06/18 05:08:21;;;;;;;;;;;17.90;99.90;;;;;;8369243;28;19920;-81
2023/06/18 05:12:21;;;;;;;;;;;18.30;99.90;;;;;;8376148;28;19916;-80
2023/06/18 05:16:22;;;;;;;;;;;19.20;99.90;;;;;;8387051;28;19935;-81
2023/06/18 05:20:22;;;;;;;;;;;19.70;99.90;;;;;;8377103;28;20332;-81
2023/06/18 05:24:22;;;;;;;;;;;19.50;99.90;;;;;;8378042;28;20357;-79
2023/06/18 05:28:23;;;;;;;;;;;19.70;99.90;;;;;;8370656;28;19919;-80
2023/06/18 05:32:23;;;;;;;;;;;19.40;99.90;;;;;;8380478;28;19909;-79
2023/06/18 05:36:24;;;;;;;;;;;19.50;99.90;;;;;;8348651;28;19917;-80
2023/06/18 05:40:25;;;;;;;;;;;19.50;99.90;;;;;;8365336;28;19923;-81
2023/06/18 05:44:25;;;;;;;;;;;19.10;99.90;;;;;;8362547;28;19908;-79
2023/06/18 05:48:26;;;;;;;;;;;19.10;99.90;;;;;;8350912;28;19963;-80
2023/06/18 05:52:26;;;;;;;;;;;19.70;99.90;;;;;;8357411;28;20330;-79
2023/06/18 05:56:27;;;;;;;;;;;20.30;99.90;;;;;;8381379;28;20618;-80
2023/06/18 06:00:27;;;;;;;;;;;20.60;99.90;;;;;;8383897;28;19982;-80
2023/06/18 06:04:28;;;;;;;;;;;21.10;99.90;;;;;;8360457;28;20521;-80
2023/06/18 06:08:28;;;;;;;;;;;21.90;99.90;;;;;;8370102;28;19909;-80
2023/06/18 06:12:29;;;;;;;;;;;22.30;99.90;;;;;;8376785;28;19913;-80
2023/06/18 06:16:30;;;;;;;;;;;22.60;99.90;;;;;;8366554;28;19908;-80
2023/06/18 06:20:30;;;;;;;;;;;23.40;99.90;;;;;;8358745;28;19920;-80
2023/06/18 06:24:31;;;;;;;;;;;23.60;99.90;;;;;;8341618;28;19912;-81
2023/06/18 06:28:31;;;;;;;;;;;24.60;99.90;;;;;;8365267;28;19916;-80
2023/06/18 06:32:31;;;;;;;;;;;25.00;99.90;;;;;;8360897;28;19986;-80
2023/06/18 06:36:32;;;;;;;;;;;24.90;99.90;;;;;;8360791;28;19928;-81
2023/06/18 06:40:32;;;;;;;;;;;24.90;99.90;;;;;;8370909;28;20366;-81
2023/06/18 06:44:33;;;;;;;;;;;25.20;99.80;;;;;;8366251;28;19910;-80
2023/06/18 06:48:33;;;;;;;;;;;25.70;99.50;;;;;;8384842;28;20320;-80
2023/06/18 06:52:34;;;;;;;;;;;26.10;97.20;;;;;;8368420;28;19920;-80
2023/06/18 06:56:35;;;;;;;;;;;26.30;94.70;;;;;;8353322;28;19923;-81
2023/06/18 07:00:35;;;;;;;;;;;26.30;94.30;;;;;;8381702;28;19921;-80
2023/06/18 07:04:36;;;;;;;;;;;27.30;92.00;;;;;;8367591;28;19917;-81
2023/06/18 07:08:36;;;;;;;;;;;26.80;87.90;;;;;;8362851;28;19927;-83
2023/06/18 07:12:37;;;;;;;;;;;27.10;89.70;;;;;;8369478;28;19917;-82
2023/06/18 07:16:37;;;;;;;;;;;27.50;85.00;;;;;;8369233;28;19962;-83
2023/06/18 07:20:38;;;;;;;;;;;27.70;82.50;;;;;;8369324;28;19909;-83
2023/06/18 07:24:38;;;;;;;;;;;27.80;82.10;;;;;;8361726;28;19913;-83
2023/06/18 07:28:39;;;;;;;;;;;27.90;84.20;;;;;;8360457;28;19973;-83
2023/06/18 07:32:39;;;;;;;;;;;28.00;80.70;;;;;;8372358;28;19927;-84
2023/06/18 07:36:40;;;;;;;;;;;28.00;83.20;;;;;;8389209;28;19924;-84
2023/06/18 07:40:40;;;;;;;;;;;28.50;81.10;;;;;;8373878;28;20678;-85
2023/06/18 07:44:41;;;;;;;;;;;28.40;81.40;;;;;;8369140;28;19991;-85
2023/06/18 07:48:41;;;;;;;;;;;28.70;83.20;;;;;;8365547;28;19974;-84
2023/06/18 07:52:42;;;;;;;;;;;29.00;80.80;;;;;;8394661;28;19923;-84
2023/06/18 07:56:42;;;;;;;;;;;29.50;78.60;;;;;;8368456;28;19946;-85
2023/06/18 08:00:43;;;;;;;;;;;29.80;77.30;;;;;;8366725;28;20477;-83
2023/06/18 08:04:43;;;;;;;;;;;30.10;75.20;;;;;;8344961;28;19920;-83
2023/06/18 08:08:44;;;;;;;;;;;30.20;76.60;;;;;;8368709;28;20034;-84
2023/06/18 08:12:44;;;;;;;;;;;30.40;73.40;;;;;;8350557;28;19920;-84
2023/06/18 08:16:44;;;;;;;;;;;30.20;72.90;;;;;;8386834;28;20014;-83
2023/06/18 08:20:45;;;;;;;;;;;29.50;72.70;;;;;;8363648;28;19928;-81
2023/06/18 08:24:45;;;;;;;;;;;29.80;69.50;;;;;;8388163;28;19928;-82
2023/06/18 08:28:46;;;;;;;;;;;30.00;67.60;;;;;;8365951;28;19917;-82
2023/06/18 08:32:46;;;;;;;;;;;29.90;68.10;;;;;;8360005;28;19913;-83
2023/06/18 08:36:47;;;;;;;;;;;29.70;66.70;;;;;;8354097;28;19920;-77
2023/06/18 08:40:52;;;;;;;;;;;29.90;64.50;;;;;;8356978;28;19982;-77
2023/06/18 08:44:54;;;;;;;;;;;29.80;70.50;;;;;;8337679;28;19917;-77
2023/06/18 08:48:59;;;;;;;;;;;29.80;66.00;;;;;;8372909;28;19927;-78
2023/06/18 08:53:02;;;;;;;;;;;29.80;67.70;;;;;;8357232;28;20521;-78
2023/06/18 08:57:24;;;;;;;;;;;30.00;64.20;;;;;;8366300;28;19964;-77
2023/06/18 09:01:25;;;;;;;;;;;29.80;72.00;;;;;;8360022;28;19920;-77
2023/06/18 09:05:32;;;;;;;;;;;29.90;66.00;;;;;;8360682;28;19917;-78
2023/06/18 09:09:44;;;;;;;;;;;29.90;66.20;;;;;;8377644;28;20062;-77
2023/06/18 09:13:45;;;;;;;;;;;30.50;65.90;;;;;;8368479;28;20023;-78
2023/06/18 09:17:50;;;;;;;;;;;30.60;61.00;;;;;;8368389;28;19928;-84
2023/06/18 09:21:51;;;;;;;;;;;30.60;60.80;;;;;;8359651;28;19913;-84
2023/06/18 09:25:52;;;;;;;;;;;30.40;62.30;;;;;;8384659;28;19982;-82
2023/06/18 09:29:53;;;;;;;;;;;30.70;60.60;;;;;;8373548;28;19912;-83
2023/06/18 09:33:53;;;;;;;;;;;31.10;66.40;;;;;;8363250;28;20497;-82
2023/06/18 09:37:54;;;;;;;;;;;31.50;58.00;;;;;;8378286;28;19916;-84
2023/06/18 09:41:55;;;;;;;;;;;31.90;56.80;;;;;;8368931;28;20368;-83
2023/06/18 09:45:56;;;;;;;;;;;32.10;60.50;;;;;;8378600;28;19927;-78
2023/06/18 09:49:56;;;;;;;;;;;32.60;56.70;;;;;;8366110;28;19912;-78
2023/06/18 09:53:59;;;;;;;;;;;32.00;54.60;;;;;;8364409;28;19920;-79
2023/06/18 09:58:00;;;;;;;;;;;32.00;54.40;;;;;;8377811;28;20223;-78
2023/06/18 10:02:01;;;;;;;;;;;32.00;51.10;;;;;;8387755;28;19919;-77
2023/06/18 10:06:10;;;;;;;;;;;32.00;49.80;;;;;;8361689;28;19917;-78
2023/06/18 10:10:14;;;;;;;;;;;31.80;50.40;;;;;;8376047;28;20156;-78
2023/06/18 10:14:16;;;;;;;;;;;30.90;53.80;;;;;;8365036;28;19916;-78
2023/06/18 10:18:22;;;;;;;;;;;30.50;52.00;;;;;;8372808;28;19923;-78
2023/06/18 10:22:24;;;;;;;;;;;30.60;52.70;;;;;;8372006;28;19915;-79
2023/06/18 10:26:25;;;;;;;;;;;30.70;53.20;;;;;;8359374;28;19959;-78
2023/06/18 10:30:25;;;;;;;;;;;30.60;49.30;;;;;;8359818;28;19916;-77
2023/06/18 10:34:26;;;;;;;;;;;30.60;55.40;;;;;;8351591;28;20015;-80
2023/06/18 10:38:27;;;;;;;;;;;31.20;53.50;;;;;;8364877;28;19988;-79
2023/06/18 10:42:30;;;;;;;;;;;31.60;52.10;;;;;;8390805;28;20086;-79
2023/06/18 10:46:34;;;;;;;;;;;32.60;50.30;;;;;;8352938;28;19916;-79
2023/06/18 10:50:34;;;;;;;;;;;33.30;50.00;;;;;;8351833;28;19939;-79
2023/06/18 10:54:37;;;;;;;;;;;33.40;49.40;;;;;;8362397;28;19920;-78
2023/06/18 10:58:39;;;;;;;;;;;33.90;48.10;;;;;;8363772;28;19924;-78
2023/06/18 11:02:40;;;;;;;;;;;34.20;47.20;;;;;;8381780;28;20982;-78
2023/06/18 11:06:41;;;;;;;;;;;34.70;48.60;;;;;;8371294;28;19916;-78
2023/06/18 11:10:48;;;;;;;;;;;35.50;45.40;;;;;;8392002;28;19973;-79
2023/06/18 11:15:07;;;;;;;;;;;35.50;46.00;;;;;;8360448;28;19912;-78
2023/06/18 11:19:08;;;;;;;;;;;35.20;45.50;;;;;;8378328;28;19912;-81
2023/06/18 11:23:09;;;;;;;;;;;35.80;47.70;;;;;;8389988;28;20288;-82
2023/06/18 11:27:13;;;;;;;;;;;36.20;42.70;;;;;;8392979;28;19916;-82
2023/06/18 11:31:14;;;;;;;;;;;36.40;46.30;;;;;;8388277;28;19923;-82
2023/06/18 11:35:14;;;;;;;;;;;36.60;43.60;;;;;;8363128;28;19917;-81
2023/06/18 11:39:15;;;;;;;;;;;36.60;41.20;;;;;;8377762;28;19920;-81
2023/06/18 11:43:16;;;;;;;;;;;36.80;42.40;;;;;;8349760;28;19978;-81
2023/06/18 11:47:17;;;;;;;;;;;36.90;43.90;;;;;;8352934;28;20162;-81
2023/06/18 11:51:18;;;;;;;;;;;36.90;39.60;;;;;;8379603;28;20377;-81
2023/06/18 11:55:19;;;;;;;;;;;37.30;42.70;;;;;;8357177;28;19924;-81
2023/06/18 11:59:20;;;;;;;;;;;37.10;41.40;;;;;;8373263;28;19912;-82
2023/06/18 12:03:23;;;;;;;;;;;35.90;41.70;;;;;;8370669;28;19916;-81
2023/06/18 12:07:24;;;;;;;;;;;35.60;42.20;;;;;;8350934;28;19916;-80
2023/06/18 12:11:30;;;;;;;;;;;35.90;42.30;;;;;;8382235;28;20536;-81
2023/06/18 12:15:34;;;;;;;;;;;35.30;43.60;;;;;;8371819;28;20003;-81
2023/06/18 12:19:36;;;;;;;;;;;36.90;41.10;;;;;;8353189;28;19961;-82
2023/06/18 12:23:38;;;;;;;;;;;38.40;41.60;;;;;;8388615;28;19987;-81
2023/06/18 12:27:42;;;;;;;;;;;39.20;38.20;;;;;;8363354;28;20373;-81
2023/06/18 12:31:43;;;;;;;;;;;37.90;39.60;;;;;;8382909;28;19916;-82
2023/06/18 12:35:54;;;;;;;;;;;37.80;42.50;;;;;;8362232;28;20542;-80
2023/06/18 12:40:14;;;;;;;;;;;38.70;41.50;;;;;;8347102;28;19908;-80
2023/06/18 12:44:17;;;;;;;;;;;39.70;36.30;;;;;;8377610;28;19913;-82
2023/06/18 12:48:24;;;;;;;;;;;40.10;35.60;;;;;;8368915;28;20498;-82
2023/06/18 12:52:26;;;;;;;;;;;41.30;40.40;;;;;;8386709;28;19916;-83
2023/06/18 12:56:27;;;;;;;;;;;40.70;41.30;;;;;;8371430;28;19917;-81
2023/06/18 13:00:28;;;;;;;;;;;39.90;42.60;;;;;;8375032;28;19999;-83
2023/06/18 13:04:28;;;;;;;;;;;37.30;45.30;;;;;;8389111;28;19913;-82
2023/06/18 13:08:29;;;;;;;;;;;35.60;46.30;;;;;;8378961;23;19932;-80
2023/06/18 13:12:30;;;;;;;;;;;35.50;45.80;;;;;;8367482;28;19920;-81
2023/06/18 13:16:30;;;;;;;;;;;34.90;45.00;;;;;;8339841;28;19913;-81
2023/06/18 13:20:31;;;;;;;;;;;34.90;48.30;;;;;;8298202;28;19924;-80
2023/06/18 13:24:31;;;;;;;;;;;35.60;45.10;;;;;;8340770;28;20266;-80
2023/06/18 13:28:32;;;;;;;;;;;37.50;42.60;;;;;;8343204;28;19960;-80
2023/06/18 13:32:32;;;;;;;;;;;39.00;39.90;;;;;;8302807;28;20011;-80
2023/06/18 13:36:34;;;;;;;;;;;37.90;42.60;;;;;;8319324;28;20130;-80
2023/06/18 13:40:34;;;;;;;;;;;37.30;42.10;;;;;;8325820;28;19943;-79
2023/06/18 13:44:38;;;;;;;;;;;36.90;44.90;;;;;;8307807;28;20378;-80
2023/06/18 13:48:38;;;;;;;;;;;37.20;45.00;;;;;;8317125;28;19932;-80
2023/06/18 13:52:39;;;;;;;;;;;36.50;44.30;;;;;;8327218;28;19908;-80
2023/06/18 13:56:39;;;;;;;;;;;36.70;44.60;;;;;;8324681;28;20358;-81
2023/06/18 14:00:41;;;;;;;;;;;37.50;43.20;;;;;;8333524;28;19921;-80
2023/06/18 14:04:42;;;;;;;;;;;38.60;43.10;;;;;;8338556;28;20002;-82
2023/06/18 14:08:42;;;;;;;;;;;39.80;33.40;;;;;;8328901;28;20294;-81
2023/06/18 14:12:43;;;;;;;;;;;39.10;40.00;;;;;;8324847;28;19913;-81
2023/06/18 14:16:43;;;;;;;;;;;38.10;41.70;;;;;;8343551;28;19916;-81
2023/06/18 14:20:44;;;;;;;;;;;38.20;39.20;;;;;;8345661;28;19913;-80
2023/06/18 14:24:44;;;;;;;;;;;39.40;39.40;;;;;;8333081;28;19936;-81
2023/06/18 14:28:45;;;;;;;;;;;40.30;35.90;;;;;;8328849;28;19928;-81
2023/06/18 14:32:45;;;;;;;;;;;42.00;36.50;;;;;;8319141;28;19916;-80
2023/06/18 14:36:46;;;;;;;;;;;39.70;41.70;;;;;;8345220;28;19921;-80
2023/06/18 14:40:46;;;;;;;;;;;38.80;39.20;;;;;;8349095;28;20642;-79
2023/06/18 14:44:47;;;;;;;;;;;37.30;40.60;;;;;;8355073;28;19936;-79
2023/06/18 14:48:50;;;;;;;;;;;38.60;40.00;;;;;;8322668;28;19928;-79
2023/06/18 14:52:50;;;;;;;;;;;40.10;38.20;;;;;;8319585;28;20000;-79
2023/06/18 14:56:51;;;;;;;;;;;41.80;37.00;;;;;;8336451;28;19931;-80
2023/06/18 15:00:52;;;;;;;;;;;43.10;36.50;;;;;;8333837;28;20007;-80
2023/06/18 15:04:53;;;;;;;;;;;43.30;35.90;;;;;;8353408;28;19917;-80
2023/06/18 15:08:54;;;;;;;;;;;41.80;38.10;;;;;;8363222;28;20454;-80
2023/06/18 15:12:55;;;;;;;;;;;38.70;42.80;;;;;;8332961;28;19909;-80
2023/06/18 15:16:55;;;;;;;;;;;36.70;48.00;;;;;;8349585;28;20477;-79
2023/06/18 15:20:55;;;;;;;;;;;36.00;48.50;;;;;;8353909;28;19913;-79
2023/06/18 15:24:58;;;;;;;;;;;35.30;52.10;;;;;;8353351;28;19912;-80
2023/06/18 15:28:58;;;;;;;;;;;34.10;52.90;;;;;;8330743;28;19921;-79
2023/06/18 15:33:04;;;;;;;;;;;33.50;54.90;;;;;;8342900;28;19920;-78
2023/06/18 15:37:05;;;;;;;;;;;33.60;56.00;;;;;;8358223;28;19941;-79
2023/06/18 15:41:06;;;;;;;;;;;34.30;55.60;;;;;;8349106;28;19971;-80
2023/06/18 15:45:07;;;;;;;;;;;34.90;60.40;;;;;;8365609;28;19912;-80
2023/06/18 15:49:07;;;;;;;;;;;35.60;54.40;;;;;;8361233;28;19912;-79
2023/06/18 15:53:08;;;;;;;;;;;34.50;54.20;;;;;;8317332;28;19935;-79
2023/06/18 15:57:08;;;;;;;;;;;33.10;55.20;;;;;;8333408;28;19913;-79
2023/06/18 16:01:09;;;;;;;;;;;32.00;57.30;;;;;;8337205;28;19920;-80
2023/06/18 16:05:09;;;;;;;;;;;31.40;58.20;;;;;;8334800;28;19924;-79
2023/06/18 16:09:10;;;;;;;;;;;31.00;59.40;;;;;;8339419;28;19939;-79
2023/06/18 16:13:11;;;;;;;;;;;30.90;57.80;;;;;;8319890;28;19924;-81
2023/06/18 16:17:11;;;;;;;;;;;31.10;58.70;;;;;;8330050;28;19913;-82
2023/06/18 16:21:15;;;;;;;;;;;31.30;61.00;;;;;;8339318;28;19951;-80
2023/06/18 16:25:16;;;;;;;;;;;31.60;61.80;;;;;;8336613;28;20023;-81
2023/06/18 16:29:16;;;;;;;;;;;31.70;57.70;;;;;;8330140;28;19909;-82
2023/06/18 16:33:16;;;;;;;;;;;31.60;50.00;;;;;;8345662;28;19920;-80
2023/06/18 16:37:17;;;;;;;;;;;31.50;50.10;;;;;;8346957;28;19916;-82
2023/06/18 16:41:20;;;;;;;;;;;31.40;50.50;;;;;;8338253;28;20271;-81
2023/06/18 16:45:21;;;;;;;;;;;30.80;51.50;;;;;;8359462;28;19913;-81
2023/06/18 16:49:22;;;;;;;;;;;30.00;53.90;;;;;;8402065;22;19934;-82
2023/06/18 16:53:42;;;;;;;;;;;29.40;56.30;;;;;;8384897;28;19936;-81
2023/06/18 16:57:46;;;;;;;;;;;29.80;55.90;;;;;;8347719;28;20319;-80
2023/06/18 17:01:46;;;;;;;;;;;29.30;57.80;;;;;;8325355;28;20438;-79
2023/06/18 17:05:47;;;;;;;;;;;29.50;56.70;;;;;;8321432;28;19917;-81
2023/06/18 17:09:48;;;;;;;;;;;29.60;54.50;;;;;;8330453;28;19913;-79
2023/06/18 17:13:49;;;;;;;;;;;29.60;54.50;;;;;;8327366;28;19916;-79
2023/06/18 17:17:50;;;;;;;;;;;29.50;57.70;;;;;;8328097;28;19959;-80
2023/06/18 17:21:50;;;;;;;;;;;29.10;54.90;;;;;;8322403;28;19913;-79
2023/06/18 17:25:51;;;;;;;;;;;29.10;55.00;;;;;;8324800;28;19916;-78
2023/06/18 17:29:51;;;;;;;;;;;29.10;56.80;;;;;;8326972;28;19921;-79
2023/06/18 17:33:52;;;;;;;;;;;28.80;55.20;;;;;;8324233;28;19929;-78
2023/06/18 17:37:52;;;;;;;;;;;28.50;57.20;;;;;;8335189;28;19909;-79
2023/06/18 17:41:53;;;;;;;;;;;28.10;56.40;;;;;;8340746;28;19955;-79
2023/06/18 17:46:12;;;;;;;;;;;27.90;57.50;;;;;;8330177;28;19968;-79
2023/06/18 17:50:14;;;;;;;;;;;27.70;57.50;;;;;;8322832;28;21190;-78
2023/06/18 17:54:15;;;;;;;;;;;27.20;59.70;;;;;;8323743;28;19917;-78
2023/06/18 17:58:16;;;;;;;;;;;27.10;58.90;;;;;;8316226;28;19960;-78
2023/06/18 18:02:16;;;;;;;;;;;26.70;59.50;;;;;;8308444;28;19988;-78
2023/06/18 18:06:17;;;;;;;;;;;26.50;61.40;;;;;;8323553;28;19928;-79
2023/06/18 18:10:17;;;;;;;;;;;26.20;63.00;;;;;;8322288;28;19966;-78
2023/06/18 18:14:19;;;;;;;;;;;25.90;66.10;;;;;;8347075;28;19959;-79
2023/06/18 18:18:20;;;;;;;;;;;25.90;67.70;;;;;;8313438;28;19929;-79
2023/06/18 18:22:21;;;;;;;;;;;25.30;69.30;;;;;;8316393;28;19935;-80
2023/06/18 18:26:22;;;;;;;;;;;24.80;71.00;;;;;;8318580;28;20389;-79
2023/06/18 18:30:23;;;;;;;;;;;24.80;75.10;;;;;;8334205;28;19912;-81
2023/06/18 18:34:23;;;;;;;;;;;24.90;74.60;;;;;;8342028;28;19917;-81
2023/06/18 19:03:18;;;;;;;;;;;22.70;81.70;;;;;;8419389;28;20484;-80
2023/06/18 19:07:18;;;;;;;;;;;22.80;86.30;;;;;;8415972;22;19935;-79
2023/06/18 19:11:18;;;;;;;;;;;22.40;87.60;;;;;;8375412;28;19923;-82
2023/06/18 19:15:19;;;;;;;;;;;21.90;88.50;;;;;;8361747;28;19916;-82
2023/06/18 19:19:20;;;;;;;;;;;22.00;89.20;;;;;;8349188;28;19919;-82
2023/06/18 19:23:20;;;;;;;;;;;21.80;91.10;;;;;;8363401;28;19908;-82
2023/06/18 19:27:20;;;;;;;;;;;21.80;92.70;;;;;;8351557;28;20573;-82
2023/06/18 19:31:21;;;;;;;;;;;21.60;94.10;;;;;;8359258;28;19916;-82
2023/06/18 19:35:21;;;;;;;;;;;21.70;95.40;;;;;;8366176;28;20554;-80
2023/06/18 19:39:22;;;;;;;;;;;21.70;95.70;;;;;;8356713;28;19966;-80
2023/06/18 19:43:23;;;;;;;;;;;21.00;96.70;;;;;;8351949;28;20297;-81
2023/06/18 19:47:32;;;;;;;;;;;20.60;99.10;;;;;;8346598;28;19927;-81
2023/06/18 19:51:42;;;;;;;;;;;20.90;99.20;;;;;;8367730;28;19955;-81
2023/06/18 19:55:52;;;;;;;;;;;21.20;99.90;;;;;;8355906;28;19916;-81
2023/06/18 20:04:40;;;;;;;;;;;20.90;99.90;;;;;;8266317;28;19952;-80
2023/06/18 20:08:41;;;;;;;;;;;20.50;99.90;;;;;;8312745;28;19920;-80
2023/06/18 20:12:42;;;;;;;;;;;20.20;99.90;;;;;;8352192;28;20531;-80
2023/06/18 20:20:54;;;;;;;;;;;19.50;99.90;;;;;;8375948;28;19928;-81
2023/06/18 20:24:57;;;;;;;;;;;20.00;99.90;;;;;;8376962;28;19931;-81
2023/06/18 20:29:10;;;;;;;;;;;20.80;99.90;;;;;;8361141;28;20024;-81
2023/06/18 20:33:14;;;;;;;;;;;19.60;99.90;;;;;;8357652;28;19920;-80
2023/06/18 20:37:15;;;;;;;;;;;21.00;99.90;;;;;;8357218;28;19916;-80
2023/06/18 20:41:16;;;;;;;;;;;20.00;99.90;;;;;;8362649;28;19913;-81
2023/06/18 20:54:13;;;;;;;;;;;20.60;99.90;;;;;;8265170;28;20332;-80
2023/06/18 20:58:13;;;;;;;;;;;20.10;99.90;;;;;;8332814;23;20088;-81
2023/06/18 21:02:32;;;;;;;;;;;19.60;99.90;;;;;;8417748;28;19908;-80
2023/06/18 21:15:24;;;;;;;;;;;19.80;99.90;;;;;;8416892;28;19924;-78
2023/06/18 21:19:25;;;;;;;;;;;20.30;99.90;;;;;;8379806;28;19920;-80
2023/06/18 21:23:25;;;;;;;;;;;20.00;99.90;;;;;;8370291;28;19974;-80
2023/06/18 21:27:26;;;;;;;;;;;20.20;99.90;;;;;;8380955;22;20011;-79
2023/06/18 21:31:26;;;;;;;;;;;20.00;99.90;;;;;;8402544;28;20426;-79
2023/06/18 21:35:27;;;;;;;;;;;20.00;99.90;;;;;;8403975;28;19919;-80
2023/06/18 21:39:28;;;;;;;;;;;20.00;99.90;;;;;;8393201;28;20285;-80
2023/06/18 21:43:28;;;;;;;;;;;20.40;99.90;;;;;;8401056;28;19916;-80
2023/06/18 21:47:28;;;;;;;;;;;20.40;99.90;;;;;;8409645;28;19920;-79
2023/06/18 21:51:29;;;;;;;;;;;20.30;99.90;;;;;;8418524;28;19916;-79
2023/06/18 21:55:29;;;;;;;;;;;20.00;99.90;;;;;;8396434;28;19934;-79
2023/06/18 21:59:30;;;;;;;;;;;19.70;99.90;;;;;;8396708;28;19916;-78
2023/06/18 22:03:42;;;;;;;;;;;20.20;99.90;;;;;;8387674;28;19988;-79
2023/06/18 22:07:43;;;;;;;;;;;19.90;99.90;;;;;;8395942;28;20003;-79
2023/06/18 22:11:53;;;;;;;;;;;21.10;99.90;;;;;;8386815;28;20569;-79
2023/06/18 22:20:33;;;;;;;;;;;21.50;99.90;;;;;;8413439;28;19918;-80
2023/06/18 22:24:35;;;;;;;;;;;20.50;99.90;;;;;;8399392;28;19908;-80
2023/06/18 22:28:41;;;;;;;;;;;19.20;99.90;;;;;;7831002;22;15756645;-79
2023/06/18 22:32:54;;;;;;;;;;;19.20;99.90;;;;;;8307679;28;20386;-79
2023/06/18 22:36:54;;;;;;;;;;;19.20;99.90;;;;;;8328782;22;20678;-80
2023/06/18 22:41:01;;;;;;;;;;;18.80;99.90;;;;;;8334122;28;19970;-80
2023/06/18 22:45:01;;;;;;;;;;;19.10;99.90;;;;;;8321273;28;19909;-80
2023/06/18 22:49:02;;;;;;;;;;;19.40;99.90;;;;;;8333244;22;19928;-79
2023/06/18 22:53:02;;;;;;;;;;;18.50;99.90;;;;;;8321382;28;20196;-80
2023/06/18 22:57:03;;;;;;;;;;;18.90;99.90;;;;;;8336692;28;19920;-79
2023/06/18 23:01:07;;;;;;;;;;;18.20;99.90;;;;;;8312310;28;19975;-79
2023/06/18 23:05:08;;;;;;;;;;;18.30;99.90;;;;;;8327292;28;19913;-80
2023/06/18 23:09:08;;;;;;;;;;;18.20;99.90;;;;;;8324423;28;19920;-80
2023/06/18 23:13:09;;;;;;;;;;;18.40;99.90;;;;;;8305477;28;19940;-78
2023/06/18 23:17:09;;;;;;;;;;;18.70;99.90;;;;;;8321269;28;19909;-78
2023/06/18 23:21:10;;;;;;;;;;;18.70;99.90;;;;;;8310963;28;19971;-79
2023/06/18 23:25:10;;;;;;;;;;;18.70;99.90;;;;;;8311545;28;19909;-79
2023/06/18 23:29:11;;;;;;;;;;;18.10;99.90;;;;;;8320424;28;20012;-79
2023/06/18 23:33:12;;;;;;;;;;;17.80;99.90;;;;;;8328102;28;20036;-79
2023/06/18 23:37:12;;;;;;;;;;;17.80;99.90;;;;;;8325224;28;20144;-79
2023/06/18 23:41:13;;;;;;;;;;;18.30;99.90;;;;;;8311857;28;20529;-80
2023/06/18 23:45:13;;;;;;;;;;;17.90;99.90;;;;;;8317156;28;19921;-79
2023/06/18 23:49:14;;;;;;;;;;;17.40;99.90;;;;;;8329367;28;19932;-80
2023/06/18 23:53:14;;;;;;;;;;;17.50;99.90;;;;;;8313452;28;19916;-78
2023/06/18 23:57:15;;;;;;;;;;;17.20;99.90;;;;;;8324885;28;20003;-79
